sensor_id;sensor_type;location;lat;lon;timestamp;temperature;humidity
20911;DHT22;10615;42.702;23.314;2023-04-06T00:00:13;2.90;85.20
20911;DHT22;10615;42.702;23.314;2023-04-06T00:01:14;2.90;85.00
20911;DHT22;10615;42.702;23.314;2023-04-06T00:02:15;2.90;84.80
20911;DHT22;10615;42.702;23.314;2023-04-06T00:03:16;2.90;84.60
20911;DHT22;10615;42.702;23.314;2023-04-06T00:04:16;2.90;84.30
20911;DHT22;10615;42.702;23.314;2023-04-06T00:05:18;2.90;84.00
20911;DHT22;10615;42.702;23.314;2023-04-06T00:06:20;2.90;83.80
20911;DHT22;10615;42.702;23.314;2023-04-06T00:07:20;2.90;83.60
20911;DHT22;10615;42.702;23.314;2023-04-06T00:08:21;2.90;83.40
20911;DHT22;10615;42.702;23.314;2023-04-06T00:09:24;2.90;83.20
20911;DHT22;10615;42.702;23.314;2023-04-06T00:10:25;2.90;83.10
20911;DHT22;10615;42.702;23.314;2023-04-06T00:11:26;2.90;82.90
20911;DHT22;10615;42.702;23.314;2023-04-06T00:12:27;2.90;82.70
20911;DHT22;10615;42.702;23.314;2023-04-06T00:13:28;2.90;82.60
20911;DHT22;10615;42.702;23.314;2023-04-06T00:14:28;2.90;83.30
20911;DHT22;10615;42.702;23.314;2023-04-06T00:15:29;2.90;82.40
20911;DHT22;10615;42.702;23.314;2023-04-06T00:16:30;2.80;82.40
20911;DHT22;10615;42.702;23.314;2023-04-06T00:17:30;2.80;82.50
20911;DHT22;10615;42.702;23.314;2023-04-06T00:18:31;2.80;82.40
20911;DHT22;10615;42.702;23.314;2023-04-06T00:19:32;2.80;82.30
20911;DHT22;10615;42.702;23.314;2023-04-06T00:20:33;2.80;82.30
20911;DHT22;10615;42.702;23.314;2023-04-06T00:21:33;2.80;82.30
20911;DHT22;10615;42.702;23.314;2023-04-06T00:22:34;2.80;82.20
20911;DHT22;10615;42.702;23.314;2023-04-06T00:23:35;2.80;82.30
20911;DHT22;10615;42.702;23.314;2023-04-06T00:24:36;2.80;82.40
20911;DHT22;10615;42.702;23.314;2023-04-06T00:25:36;2.80;82.30
20911;DHT22;10615;42.702;23.314;2023-04-06T00:26:37;2.80;82.30
20911;DHT22;10615;42.702;23.314;2023-04-06T00:27:38;2.80;82.30
20911;DHT22;10615;42.702;23.314;2023-04-06T00:28:39;2.80;82.40
20911;DHT22;10615;42.702;23.314;2023-04-06T00:29:40;2.80;82.40
20911;DHT22;10615;42.702;23.314;2023-04-06T00:30:41;2.80;82.40
20911;DHT22;10615;42.702;23.314;2023-04-06T00:31:42;2.90;82.40
20911;DHT22;10615;42.702;23.314;2023-04-06T00:32:42;2.80;82.30
20911;DHT22;10615;42.702;23.314;2023-04-06T00:33:43;2.80;82.20
20911;DHT22;10615;42.702;23.314;2023-04-06T00:34:44;2.80;82.30
20911;DHT22;10615;42.702;23.314;2023-04-06T00:35:45;2.80;82.30
20911;DHT22;10615;42.702;23.314;2023-04-06T00:36:45;2.80;82.30
20911;DHT22;10615;42.702;23.314;2023-04-06T00:37:46;2.90;82.50
20911;DHT22;10615;42.702;23.314;2023-04-06T00:38:48;2.90;82.40
20911;DHT22;10615;42.702;23.314;2023-04-06T00:39:49;2.90;82.30
20911;DHT22;10615;42.702;23.314;2023-04-06T00:40:51;2.90;82.20
20911;DHT22;10615;42.702;23.314;2023-04-06T00:41:52;2.90;82.20
20911;DHT22;10615;42.702;23.314;2023-04-06T00:42:54;2.90;82.30
20911;DHT22;10615;42.702;23.314;2023-04-06T00:43:55;2.90;82.30
20911;DHT22;10615;42.702;23.314;2023-04-06T00:44:59;3.00;82.30
20911;DHT22;10615;42.702;23.314;2023-04-06T00:45:59;3.00;82.40
20911;DHT22;10615;42.702;23.314;2023-04-06T00:47:00;3.00;82.30
20911;DHT22;10615;42.702;23.314;2023-04-06T00:48:01;3.00;82.30
20911;DHT22;10615;42.702;23.314;2023-04-06T00:49:05;3.00;82.10
20911;DHT22;10615;42.702;23.314;2023-04-06T00:50:06;3.00;82.00
20911;DHT22;10615;42.702;23.314;2023-04-06T00:51:07;2.90;81.80
20911;DHT22;10615;42.702;23.314;2023-04-06T00:52:08;2.90;81.80
20911;DHT22;10615;42.702;23.314;2023-04-06T00:53:08;3.00;82.00
20911;DHT22;10615;42.702;23.314;2023-04-06T00:54:09;2.90;81.90
20911;DHT22;10615;42.702;23.314;2023-04-06T00:55:09;2.90;81.80
20911;DHT22;10615;42.702;23.314;2023-04-06T00:56:10;2.90;81.80
20911;DHT22;10615;42.702;23.314;2023-04-06T00:57:12;2.90;81.70
20911;DHT22;10615;42.702;23.314;2023-04-06T00:58:12;2.90;81.80
20911;DHT22;10615;42.702;23.314;2023-04-06T00:59:13;2.90;81.70
20911;DHT22;10615;42.702;23.314;2023-04-06T01:00:14;2.90;81.70
20911;DHT22;10615;42.702;23.314;2023-04-06T01:01:15;2.90;81.80
20911;DHT22;10615;42.702;23.314;2023-04-06T01:02:16;3.00;82.00
20911;DHT22;10615;42.702;23.314;2023-04-06T01:03:17;2.90;81.90
20911;DHT22;10615;42.702;23.314;2023-04-06T01:04:17;2.90;81.80
20911;DHT22;10615;42.702;23.314;2023-04-06T01:05:18;3.00;81.90
20911;DHT22;10615;42.702;23.314;2023-04-06T01:06:19;3.00;81.80
20911;DHT22;10615;42.702;23.314;2023-04-06T01:07:20;3.00;81.90
20911;DHT22;10615;42.702;23.314;2023-04-06T01:08:20;3.00;81.80
20911;DHT22;10615;42.702;23.314;2023-04-06T01:09:22;3.00;81.80
20911;DHT22;10615;42.702;23.314;2023-04-06T01:10:27;3.00;81.80
20911;DHT22;10615;42.702;23.314;2023-04-06T01:11:28;3.00;81.70
20911;DHT22;10615;42.702;23.314;2023-04-06T01:12:29;3.10;81.80
20911;DHT22;10615;42.702;23.314;2023-04-06T01:13:30;3.10;81.70
20911;DHT22;10615;42.702;23.314;2023-04-06T01:14:30;3.10;81.70
20911;DHT22;10615;42.702;23.314;2023-04-06T01:15:32;3.10;81.60
20911;DHT22;10615;42.702;23.314;2023-04-06T01:16:34;3.10;81.60
20911;DHT22;10615;42.702;23.314;2023-04-06T01:17:35;3.10;81.70
20911;DHT22;10615;42.702;23.314;2023-04-06T01:18:38;3.10;81.70
20911;DHT22;10615;42.702;23.314;2023-04-06T01:19:38;3.10;81.70
20911;DHT22;10615;42.702;23.314;2023-04-06T01:20:40;3.10;81.70
20911;DHT22;10615;42.702;23.314;2023-04-06T01:21:42;3.10;81.80
20911;DHT22;10615;42.702;23.314;2023-04-06T01:22:42;3.10;82.00
20911;DHT22;10615;42.702;23.314;2023-04-06T01:23:44;3.10;82.20
20911;DHT22;10615;42.702;23.314;2023-04-06T01:24:46;3.10;82.20
20911;DHT22;10615;42.702;23.314;2023-04-06T01:25:47;3.10;82.30
20911;DHT22;10615;42.702;23.314;2023-04-06T01:26:47;3.10;82.30
20911;DHT22;10615;42.702;23.314;2023-04-06T01:27:48;3.10;82.20
20911;DHT22;10615;42.702;23.314;2023-04-06T01:28:49;3.10;82.30
20911;DHT22;10615;42.702;23.314;2023-04-06T01:29:49;3.00;82.20
20911;DHT22;10615;42.702;23.314;2023-04-06T01:30:50;3.00;82.30
20911;DHT22;10615;42.702;23.314;2023-04-06T01:31:51;3.00;82.40
20911;DHT22;10615;42.702;23.314;2023-04-06T01:32:52;3.00;82.50
20911;DHT22;10615;42.702;23.314;2023-04-06T01:33:53;3.00;82.70
20911;DHT22;10615;42.702;23.314;2023-04-06T01:34:53;3.00;82.80
20911;DHT22;10615;42.702;23.314;2023-04-06T01:35:55;3.00;83.00
20911;DHT22;10615;42.702;23.314;2023-04-06T01:36:55;3.10;83.10
20911;DHT22;10615;42.702;23.314;2023-04-06T01:37:56;3.10;83.20
20911;DHT22;10615;42.702;23.314;2023-04-06T01:38:57;3.10;83.20
20911;DHT22;10615;42.702;23.314;2023-04-06T01:39:57;3.10;83.10
20911;DHT22;10615;42.702;23.314;2023-04-06T01:40:58;3.10;83.20
20911;DHT22;10615;42.702;23.314;2023-04-06T01:41:59;3.10;83.10
20911;DHT22;10615;42.702;23.314;2023-04-06T01:42:59;3.10;83.10
20911;DHT22;10615;42.702;23.314;2023-04-06T01:44:00;3.20;83.10
20911;DHT22;10615;42.702;23.314;2023-04-06T01:45:01;3.20;83.10
20911;DHT22;10615;42.702;23.314;2023-04-06T01:46:02;3.20;83.00
20911;DHT22;10615;42.702;23.314;2023-04-06T01:47:03;3.20;83.00
20911;DHT22;10615;42.702;23.314;2023-04-06T01:48:04;3.20;83.10
20911;DHT22;10615;42.702;23.314;2023-04-06T01:49:04;3.20;83.30
20911;DHT22;10615;42.702;23.314;2023-04-06T01:50:05;3.20;83.10
20911;DHT22;10615;42.702;23.314;2023-04-06T01:51:07;3.20;83.20
20911;DHT22;10615;42.702;23.314;2023-04-06T01:52:08;3.10;83.20
20911;DHT22;10615;42.702;23.314;2023-04-06T01:53:08;3.10;83.30
20911;DHT22;10615;42.702;23.314;2023-04-06T01:54:09;3.10;83.40
20911;DHT22;10615;42.702;23.314;2023-04-06T01:55:10;3.10;83.50
20911;DHT22;10615;42.702;23.314;2023-04-06T01:56:10;3.10;83.70
20911;DHT22;10615;42.702;23.314;2023-04-06T01:57:11;3.00;83.60
20911;DHT22;10615;42.702;23.314;2023-04-06T01:58:12;3.00;83.70
20911;DHT22;10615;42.702;23.314;2023-04-06T01:59:13;3.10;84.00
20911;DHT22;10615;42.702;23.314;2023-04-06T02:00:14;3.10;84.00
20911;DHT22;10615;42.702;23.314;2023-04-06T02:01:15;3.10;84.10
20911;DHT22;10615;42.702;23.314;2023-04-06T02:02:16;3.10;84.10
20911;DHT22;10615;42.702;23.314;2023-04-06T02:03:16;3.10;84.10
20911;DHT22;10615;42.702;23.314;2023-04-06T02:04:17;3.20;84.20
20911;DHT22;10615;42.702;23.314;2023-04-06T02:05:19;3.20;84.10
20911;DHT22;10615;42.702;23.314;2023-04-06T02:06:20;3.20;84.10
20911;DHT22;10615;42.702;23.314;2023-04-06T02:07:21;3.20;84.00
20911;DHT22;10615;42.702;23.314;2023-04-06T02:08:21;3.10;84.00
20911;DHT22;10615;42.702;23.314;2023-04-06T02:09:22;3.10;84.10
20911;DHT22;10615;42.702;23.314;2023-04-06T02:10:22;3.10;84.30
20911;DHT22;10615;42.702;23.314;2023-04-06T02:11:24;3.10;84.50
20911;DHT22;10615;42.702;23.314;2023-04-06T02:12:24;3.10;84.60
20911;DHT22;10615;42.702;23.314;2023-04-06T02:13:25;3.10;84.80
20911;DHT22;10615;42.702;23.314;2023-04-06T02:14:26;3.10;85.00
20911;DHT22;10615;42.702;23.314;2023-04-06T02:15:27;3.10;85.20
20911;DHT22;10615;42.702;23.314;2023-04-06T02:16:27;3.10;85.20
20911;DHT22;10615;42.702;23.314;2023-04-06T02:17:28;3.10;85.20
20911;DHT22;10615;42.702;23.314;2023-04-06T02:18:31;3.10;85.20
20911;DHT22;10615;42.702;23.314;2023-04-06T02:19:31;3.10;85.10
20911;DHT22;10615;42.702;23.314;2023-04-06T02:20:32;3.10;85.00
20911;DHT22;10615;42.702;23.314;2023-04-06T02:21:33;3.10;85.00
20911;DHT22;10615;42.702;23.314;2023-04-06T02:22:34;3.10;85.80
20911;DHT22;10615;42.702;23.314;2023-04-06T02:23:35;3.00;84.90
20911;DHT22;10615;42.702;23.314;2023-04-06T02:24:36;3.00;84.90
20911;DHT22;10615;42.702;23.314;2023-04-06T02:25:37;3.10;85.20
20911;DHT22;10615;42.702;23.314;2023-04-06T02:26:37;3.10;85.20
20911;DHT22;10615;42.702;23.314;2023-04-06T02:27:38;3.10;85.30
20911;DHT22;10615;42.702;23.314;2023-04-06T02:28:38;3.10;85.30
20911;DHT22;10615;42.702;23.314;2023-04-06T02:29:40;3.10;85.20
20911;DHT22;10615;42.702;23.314;2023-04-06T02:30:40;3.10;86.00
20911;DHT22;10615;42.702;23.314;2023-04-06T02:31:41;3.10;85.10
20911;DHT22;10615;42.702;23.314;2023-04-06T02:32:42;3.10;85.10
20911;DHT22;10615;42.702;23.314;2023-04-06T02:33:42;3.10;85.10
20911;DHT22;10615;42.702;23.314;2023-04-06T02:34:43;3.10;85.20
20911;DHT22;10615;42.702;23.314;2023-04-06T02:35:44;3.10;85.20
20911;DHT22;10615;42.702;23.314;2023-04-06T02:36:46;3.10;85.30
20911;DHT22;10615;42.702;23.314;2023-04-06T02:37:47;3.10;85.20
20911;DHT22;10615;42.702;23.314;2023-04-06T02:38:48;3.10;85.20
20911;DHT22;10615;42.702;23.314;2023-04-06T02:39:48;3.10;85.30
20911;DHT22;10615;42.702;23.314;2023-04-06T02:40:49;3.10;85.30
20911;DHT22;10615;42.702;23.314;2023-04-06T02:41:50;3.10;85.20
20911;DHT22;10615;42.702;23.314;2023-04-06T02:42:50;3.10;85.20
20911;DHT22;10615;42.702;23.314;2023-04-06T02:43:51;3.10;85.10
20911;DHT22;10615;42.702;23.314;2023-04-06T02:44:51;3.10;84.90
20911;DHT22;10615;42.702;23.314;2023-04-06T02:45:52;3.10;84.70
20911;DHT22;10615;42.702;23.314;2023-04-06T02:46:53;3.10;84.60
20911;DHT22;10615;42.702;23.314;2023-04-06T02:47:53;3.10;84.60
20911;DHT22;10615;42.702;23.314;2023-04-06T02:48:54;3.10;84.60
20911;DHT22;10615;42.702;23.314;2023-04-06T02:49:55;3.10;84.60
20911;DHT22;10615;42.702;23.314;2023-04-06T02:50:56;3.10;84.60
20911;DHT22;10615;42.702;23.314;2023-04-06T02:51:56;3.10;84.60
20911;DHT22;10615;42.702;23.314;2023-04-06T02:52:57;3.10;84.50
20911;DHT22;10615;42.702;23.314;2023-04-06T02:53:58;3.10;84.40
20911;DHT22;10615;42.702;23.314;2023-04-06T02:54:58;3.10;84.30
20911;DHT22;10615;42.702;23.314;2023-04-06T02:55:59;3.10;84.10
20911;DHT22;10615;42.702;23.314;2023-04-06T02:57:00;3.10;84.00
20911;DHT22;10615;42.702;23.314;2023-04-06T02:58:19;3.10;83.90
20911;DHT22;10615;42.702;23.314;2023-04-06T02:59:20;3.10;83.80
20911;DHT22;10615;42.702;23.314;2023-04-06T03:00:20;3.00;83.70
20911;DHT22;10615;42.702;23.314;2023-04-06T03:01:21;3.00;83.60
20911;DHT22;10615;42.702;23.314;2023-04-06T03:02:22;3.00;83.70
20911;DHT22;10615;42.702;23.314;2023-04-06T03:03:23;3.00;83.70
20911;DHT22;10615;42.702;23.314;2023-04-06T03:04:23;3.00;83.80
20911;DHT22;10615;42.702;23.314;2023-04-06T03:05:25;3.00;83.80
20911;DHT22;10615;42.702;23.314;2023-04-06T03:06:26;3.10;83.80
20911;DHT22;10615;42.702;23.314;2023-04-06T03:07:27;3.10;83.80
20911;DHT22;10615;42.702;23.314;2023-04-06T03:08:27;3.10;83.80
20911;DHT22;10615;42.702;23.314;2023-04-06T03:09:28;3.10;83.80
20911;DHT22;10615;42.702;23.314;2023-04-06T03:10:29;3.10;83.70
20911;DHT22;10615;42.702;23.314;2023-04-06T03:11:29;3.20;83.80
20911;DHT22;10615;42.702;23.314;2023-04-06T03:12:30;3.20;83.60
20911;DHT22;10615;42.702;23.314;2023-04-06T03:13:31;3.20;83.50
20911;DHT22;10615;42.702;23.314;2023-04-06T03:14:31;3.20;83.50
20911;DHT22;10615;42.702;23.314;2023-04-06T03:15:32;3.20;83.30
20911;DHT22;10615;42.702;23.314;2023-04-06T03:16:33;3.20;83.30
20911;DHT22;10615;42.702;23.314;2023-04-06T03:17:33;3.20;83.30
20911;DHT22;10615;42.702;23.314;2023-04-06T03:18:35;3.20;83.30
20911;DHT22;10615;42.702;23.314;2023-04-06T03:19:36;3.20;83.30
20911;DHT22;10615;42.702;23.314;2023-04-06T03:20:37;3.20;84.00
20911;DHT22;10615;42.702;23.314;2023-04-06T03:21:38;3.20;83.00
20911;DHT22;10615;42.702;23.314;2023-04-06T03:22:38;3.30;83.00
20911;DHT22;10615;42.702;23.314;2023-04-06T03:23:39;3.30;83.00
20911;DHT22;10615;42.702;23.314;2023-04-06T03:24:40;3.30;82.90
20911;DHT22;10615;42.702;23.314;2023-04-06T03:25:40;3.20;82.50
20911;DHT22;10615;42.702;23.314;2023-04-06T03:26:41;3.20;82.20
20911;DHT22;10615;42.702;23.314;2023-04-06T03:27:42;3.20;82.00
20911;DHT22;10615;42.702;23.314;2023-04-06T03:28:42;3.20;82.10
20911;DHT22;10615;42.702;23.314;2023-04-06T03:29:43;3.20;82.10
20911;DHT22;10615;42.702;23.314;2023-04-06T03:30:45;3.20;82.10
20911;DHT22;10615;42.702;23.314;2023-04-06T03:31:45;3.10;82.10
20911;DHT22;10615;42.702;23.314;2023-04-06T03:32:46;3.20;82.20
20911;DHT22;10615;42.702;23.314;2023-04-06T03:33:47;3.10;82.20
20911;DHT22;10615;42.702;23.314;2023-04-06T03:34:47;3.10;82.10
20911;DHT22;10615;42.702;23.314;2023-04-06T03:35:48;3.10;82.20
20911;DHT22;10615;42.702;23.314;2023-04-06T03:36:49;3.20;82.30
20911;DHT22;10615;42.702;23.314;2023-04-06T03:37:50;3.20;82.40
20911;DHT22;10615;42.702;23.314;2023-04-06T03:38:50;3.20;82.40
20911;DHT22;10615;42.702;23.314;2023-04-06T03:39:53;3.20;82.20
20911;DHT22;10615;42.702;23.314;2023-04-06T03:40:54;3.20;82.30
20911;DHT22;10615;42.702;23.314;2023-04-06T03:41:55;3.20;82.40
20911;DHT22;10615;42.702;23.314;2023-04-06T03:42:55;3.20;82.60
20911;DHT22;10615;42.702;23.314;2023-04-06T03:43:56;3.20;82.90
20911;DHT22;10615;42.702;23.314;2023-04-06T03:44:56;3.20;83.10
20911;DHT22;10615;42.702;23.314;2023-04-06T03:45:57;3.20;83.30
20911;DHT22;10615;42.702;23.314;2023-04-06T03:46:58;3.20;83.50
20911;DHT22;10615;42.702;23.314;2023-04-06T03:47:58;3.20;83.50
20911;DHT22;10615;42.702;23.314;2023-04-06T03:48:59;3.20;83.60
20911;DHT22;10615;42.702;23.314;2023-04-06T03:50:01;3.20;83.60
20911;DHT22;10615;42.702;23.314;2023-04-06T03:51:03;3.20;83.60
20911;DHT22;10615;42.702;23.314;2023-04-06T03:52:04;3.20;83.70
20911;DHT22;10615;42.702;23.314;2023-04-06T03:53:05;3.20;83.90
20911;DHT22;10615;42.702;23.314;2023-04-06T03:54:06;3.20;83.90
20911;DHT22;10615;42.702;23.314;2023-04-06T03:55:07;3.20;83.90
20911;DHT22;10615;42.702;23.314;2023-04-06T03:56:08;3.20;84.80
20911;DHT22;10615;42.702;23.314;2023-04-06T03:57:09;3.20;84.20
20911;DHT22;10615;42.702;23.314;2023-04-06T03:58:09;3.10;84.30
20911;DHT22;10615;42.702;23.314;2023-04-06T03:59:10;3.20;84.70
20911;DHT22;10615;42.702;23.314;2023-04-06T04:00:12;3.20;84.70
20911;DHT22;10615;42.702;23.314;2023-04-06T04:01:12;3.20;84.70
20911;DHT22;10615;42.702;23.314;2023-04-06T04:02:13;3.20;84.70
20911;DHT22;10615;42.702;23.314;2023-04-06T04:03:14;3.10;84.70
20911;DHT22;10615;42.702;23.314;2023-04-06T04:04:15;3.20;84.90
20911;DHT22;10615;42.702;23.314;2023-04-06T04:05:15;3.10;85.20
20911;DHT22;10615;42.702;23.314;2023-04-06T04:06:16;3.20;85.30
20911;DHT22;10615;42.702;23.314;2023-04-06T04:07:17;3.10;85.50
20911;DHT22;10615;42.702;23.314;2023-04-06T04:08:17;3.10;85.60
20911;DHT22;10615;42.702;23.314;2023-04-06T04:09:18;3.10;85.70
20911;DHT22;10615;42.702;23.314;2023-04-06T04:10:19;3.10;85.90
20911;DHT22;10615;42.702;23.314;2023-04-06T04:11:19;3.20;86.00
20911;DHT22;10615;42.702;23.314;2023-04-06T04:12:20;3.10;86.00
20911;DHT22;10615;42.702;23.314;2023-04-06T04:13:21;3.20;86.50
20911;DHT22;10615;42.702;23.314;2023-04-06T04:14:22;3.20;86.10
20911;DHT22;10615;42.702;23.314;2023-04-06T04:15:23;3.20;86.10
20911;DHT22;10615;42.702;23.314;2023-04-06T04:16:23;3.20;86.10
20911;DHT22;10615;42.702;23.314;2023-04-06T04:17:24;3.20;86.10
20911;DHT22;10615;42.702;23.314;2023-04-06T04:18:25;3.20;86.10
20911;DHT22;10615;42.702;23.314;2023-04-06T04:19:26;3.20;86.00
20911;DHT22;10615;42.702;23.314;2023-04-06T04:20:27;3.20;86.00
20911;DHT22;10615;42.702;23.314;2023-04-06T04:21:30;3.20;86.10
20911;DHT22;10615;42.702;23.314;2023-04-06T04:22:31;3.20;86.20
20911;DHT22;10615;42.702;23.314;2023-04-06T04:23:33;3.10;86.30
20911;DHT22;10615;42.702;23.314;2023-04-06T04:24:33;3.10;86.60
20911;DHT22;10615;42.702;23.314;2023-04-06T04:25:34;3.20;86.80
20911;DHT22;10615;42.702;23.314;2023-04-06T04:26:35;3.10;86.60
20911;DHT22;10615;42.702;23.314;2023-04-06T04:27:35;3.10;86.70
20911;DHT22;10615;42.702;23.314;2023-04-06T04:28:36;3.10;86.70
20911;DHT22;10615;42.702;23.314;2023-04-06T04:29:37;3.10;86.60
20911;DHT22;10615;42.702;23.314;2023-04-06T04:30:37;3.10;86.60
20911;DHT22;10615;42.702;23.314;2023-04-06T04:31:38;3.10;86.60
20911;DHT22;10615;42.702;23.314;2023-04-06T04:32:39;3.10;86.40
20911;DHT22;10615;42.702;23.314;2023-04-06T04:33:39;3.10;86.30
20911;DHT22;10615;42.702;23.314;2023-04-06T04:34:40;3.20;86.20
20911;DHT22;10615;42.702;23.314;2023-04-06T04:35:41;3.20;86.20
20911;DHT22;10615;42.702;23.314;2023-04-06T04:36:42;3.20;86.30
20911;DHT22;10615;42.702;23.314;2023-04-06T04:37:42;3.20;86.20
20911;DHT22;10615;42.702;23.314;2023-04-06T04:38:43;3.20;86.00
20911;DHT22;10615;42.702;23.314;2023-04-06T04:39:45;3.20;85.90
20911;DHT22;10615;42.702;23.314;2023-04-06T04:40:46;3.30;86.00
20911;DHT22;10615;42.702;23.314;2023-04-06T04:41:46;3.30;85.90
20911;DHT22;10615;42.702;23.314;2023-04-06T04:42:48;3.30;85.80
20911;DHT22;10615;42.702;23.314;2023-04-06T04:43:49;3.30;85.60
20911;DHT22;10615;42.702;23.314;2023-04-06T04:44:50;3.30;85.60
20911;DHT22;10615;42.702;23.314;2023-04-06T04:45:51;3.30;85.50
20911;DHT22;10615;42.702;23.314;2023-04-06T04:46:52;3.40;85.50
20911;DHT22;10615;42.702;23.314;2023-04-06T04:47:53;3.30;85.30
20911;DHT22;10615;42.702;23.314;2023-04-06T04:48:54;3.40;85.30
20911;DHT22;10615;42.702;23.314;2023-04-06T04:49:54;3.40;85.00
20911;DHT22;10615;42.702;23.314;2023-04-06T04:50:55;3.40;84.80
20911;DHT22;10615;42.702;23.314;2023-04-06T04:51:56;3.30;84.60
20911;DHT22;10615;42.702;23.314;2023-04-06T04:52:57;3.30;84.50
20911;DHT22;10615;42.702;23.314;2023-04-06T04:53:57;3.40;84.40
20911;DHT22;10615;42.702;23.314;2023-04-06T04:54:58;3.30;84.30
20911;DHT22;10615;42.702;23.314;2023-04-06T04:55:59;3.30;84.20
20911;DHT22;10615;42.702;23.314;2023-04-06T04:56:59;3.30;84.10
20911;DHT22;10615;42.702;23.314;2023-04-06T04:58:00;3.30;83.80
20911;DHT22;10615;42.702;23.314;2023-04-06T04:59:01;3.30;83.60
20911;DHT22;10615;42.702;23.314;2023-04-06T05:00:02;3.40;83.60
20911;DHT22;10615;42.702;23.314;2023-04-06T05:01:03;3.30;83.50
20911;DHT22;10615;42.702;23.314;2023-04-06T05:02:04;3.40;83.60
20911;DHT22;10615;42.702;23.314;2023-04-06T05:03:04;3.40;83.50
20911;DHT22;10615;42.702;23.314;2023-04-06T05:04:05;3.40;83.50
20911;DHT22;10615;42.702;23.314;2023-04-06T05:05:07;3.40;83.60
20911;DHT22;10615;42.702;23.314;2023-04-06T05:06:07;3.40;83.60
20911;DHT22;10615;42.702;23.314;2023-04-06T05:07:09;3.50;83.70
20911;DHT22;10615;42.702;23.314;2023-04-06T05:08:10;3.50;84.00
20911;DHT22;10615;42.702;23.314;2023-04-06T05:09:10;3.50;84.20
20911;DHT22;10615;42.702;23.314;2023-04-06T05:10:11;3.50;84.30
20911;DHT22;10615;42.702;23.314;2023-04-06T05:11:12;3.50;84.10
20911;DHT22;10615;42.702;23.314;2023-04-06T05:12:13;3.50;83.70
20911;DHT22;10615;42.702;23.314;2023-04-06T05:13:14;3.50;84.40
20911;DHT22;10615;42.702;23.314;2023-04-06T05:14:15;3.50;83.30
20911;DHT22;10615;42.702;23.314;2023-04-06T05:15:16;3.50;83.10
20911;DHT22;10615;42.702;23.314;2023-04-06T05:16:17;3.50;83.10
20911;DHT22;10615;42.702;23.314;2023-04-06T05:17:17;3.40;83.00
20911;DHT22;10615;42.702;23.314;2023-04-06T05:18:18;3.50;83.00
20911;DHT22;10615;42.702;23.314;2023-04-06T05:19:19;3.50;82.80
20911;DHT22;10615;42.702;23.314;2023-04-06T05:20:20;3.50;82.80
20911;DHT22;10615;42.702;23.314;2023-04-06T05:21:20;3.40;82.70
20911;DHT22;10615;42.702;23.314;2023-04-06T05:22:21;3.40;82.70
20911;DHT22;10615;42.702;23.314;2023-04-06T05:23:22;3.50;83.00
20911;DHT22;10615;42.702;23.314;2023-04-06T05:24:23;3.50;82.90
20911;DHT22;10615;42.702;23.314;2023-04-06T05:25:24;3.40;83.00
20911;DHT22;10615;42.702;23.314;2023-04-06T05:26:24;3.50;83.00
20911;DHT22;10615;42.702;23.314;2023-04-06T05:27:25;3.50;83.00
20911;DHT22;10615;42.702;23.314;2023-04-06T05:28:26;3.50;83.00
20911;DHT22;10615;42.702;23.314;2023-04-06T05:29:27;3.50;82.90
20911;DHT22;10615;42.702;23.314;2023-04-06T05:30:27;3.50;82.90
20911;DHT22;10615;42.702;23.314;2023-04-06T05:31:29;3.50;82.90
20911;DHT22;10615;42.702;23.314;2023-04-06T05:32:30;3.60;83.10
20911;DHT22;10615;42.702;23.314;2023-04-06T05:33:30;3.60;83.10
20911;DHT22;10615;42.702;23.314;2023-04-06T05:34:31;3.60;83.10
20911;DHT22;10615;42.702;23.314;2023-04-06T05:35:32;3.60;83.10
20911;DHT22;10615;42.702;23.314;2023-04-06T05:36:33;3.60;83.20
20911;DHT22;10615;42.702;23.314;2023-04-06T05:37:34;3.60;83.30
20911;DHT22;10615;42.702;23.314;2023-04-06T05:38:34;3.60;83.30
20911;DHT22;10615;42.702;23.314;2023-04-06T05:39:35;3.60;83.30
20911;DHT22;10615;42.702;23.314;2023-04-06T05:40:37;3.70;83.50
20911;DHT22;10615;42.702;23.314;2023-04-06T05:41:38;3.70;83.60
20911;DHT22;10615;42.702;23.314;2023-04-06T05:42:40;3.70;83.60
20911;DHT22;10615;42.702;23.314;2023-04-06T05:43:42;3.70;83.50
20911;DHT22;10615;42.702;23.314;2023-04-06T05:44:43;3.70;83.40
20911;DHT22;10615;42.702;23.314;2023-04-06T05:45:44;3.70;83.30
20911;DHT22;10615;42.702;23.314;2023-04-06T05:46:46;3.70;83.20
20911;DHT22;10615;42.702;23.314;2023-04-06T05:47:46;3.70;83.20
20911;DHT22;10615;42.702;23.314;2023-04-06T05:48:47;3.70;83.10
20911;DHT22;10615;42.702;23.314;2023-04-06T05:49:48;3.60;83.00
20911;DHT22;10615;42.702;23.314;2023-04-06T05:50:49;3.60;83.00
20911;DHT22;10615;42.702;23.314;2023-04-06T05:51:53;3.60;83.00
20911;DHT22;10615;42.702;23.314;2023-04-06T05:52:54;3.50;83.10
20911;DHT22;10615;42.702;23.314;2023-04-06T05:53:55;3.50;83.20
20911;DHT22;10615;42.702;23.314;2023-04-06T05:54:55;3.50;83.40
20911;DHT22;10615;42.702;23.314;2023-04-06T05:55:56;3.40;83.70
20911;DHT22;10615;42.702;23.314;2023-04-06T05:56:57;3.40;83.90
20911;DHT22;10615;42.702;23.314;2023-04-06T05:57:58;3.40;83.90
20911;DHT22;10615;42.702;23.314;2023-04-06T05:58:59;3.40;84.00
20911;DHT22;10615;42.702;23.314;2023-04-06T05:59:59;3.50;84.30
20911;DHT22;10615;42.702;23.314;2023-04-06T06:01:00;3.40;84.40
20911;DHT22;10615;42.702;23.314;2023-04-06T06:02:01;3.50;84.50
20911;DHT22;10615;42.702;23.314;2023-04-06T06:03:02;3.50;84.50
20911;DHT22;10615;42.702;23.314;2023-04-06T06:04:04;3.50;84.50
20911;DHT22;10615;42.702;23.314;2023-04-06T06:05:05;3.50;85.40
20911;DHT22;10615;42.702;23.314;2023-04-06T06:06:06;3.50;84.60
20911;DHT22;10615;42.702;23.314;2023-04-06T06:07:07;3.50;84.60
20911;DHT22;10615;42.702;23.314;2023-04-06T06:08:07;3.60;84.80
20911;DHT22;10615;42.702;23.314;2023-04-06T06:09:08;3.60;84.70
20911;DHT22;10615;42.702;23.314;2023-04-06T06:10:09;3.60;84.70
20911;DHT22;10615;42.702;23.314;2023-04-06T06:11:10;3.60;84.70
20911;DHT22;10615;42.702;23.314;2023-04-06T06:12:11;3.60;84.70
20911;DHT22;10615;42.702;23.314;2023-04-06T06:13:12;3.60;84.70
20911;DHT22;10615;42.702;23.314;2023-04-06T06:14:12;3.60;84.80
20911;DHT22;10615;42.702;23.314;2023-04-06T06:15:13;3.60;84.90
20911;DHT22;10615;42.702;23.314;2023-04-06T06:16:14;3.60;84.90
20911;DHT22;10615;42.702;23.314;2023-04-06T06:17:15;3.60;85.50
20911;DHT22;10615;42.702;23.314;2023-04-06T06:18:16;3.60;84.60
20911;DHT22;10615;42.702;23.314;2023-04-06T06:19:17;3.60;84.80
20911;DHT22;10615;42.702;23.314;2023-04-06T06:20:17;3.60;85.00
20911;DHT22;10615;42.702;23.314;2023-04-06T06:21:18;3.70;85.20
20911;DHT22;10615;42.702;23.314;2023-04-06T06:22:19;3.70;85.20
20911;DHT22;10615;42.702;23.314;2023-04-06T06:23:20;3.70;85.00
20911;DHT22;10615;42.702;23.314;2023-04-06T06:24:21;3.80;85.00